createdAt,value
2022-10-17T00:00:57.509Z,63.00
2022-10-17T00:03:24.221Z,63.00
2022-10-17T00:05:50.978Z,63.10
2022-10-17T00:08:19.473Z,63.10
2022-10-17T00:10:54.789Z,63.20
2022-10-17T00:13:21.536Z,63.40
2022-10-17T00:15:48.346Z,63.40
2022-10-17T00:18:15.106Z,63.50
2022-10-17T00:20:41.887Z,63.50
2022-10-17T00:23:08.658Z,63.50
2022-10-17T00:25:35.505Z,63.50
2022-10-17T00:28:02.266Z,63.50
2022-10-17T00:30:29.299Z,63.90
2022-10-17T00:32:56.585Z,63.50
2022-10-17T00:35:23.314Z,63.50
2022-10-17T00:37:50.119Z,63.50
2022-10-17T00:40:17.765Z,63.60
2022-10-17T00:42:46.976Z,63.60
2022-10-17T00:45:13.819Z,63.80
2022-10-17T00:47:45.531Z,63.80
2022-10-17T00:50:13.568Z,63.80
2022-10-17T00:52:41.404Z,63.90
2022-10-17T00:55:23.570Z,63.90
2022-10-17T00:57:51.331Z,64.90
2022-10-17T01:00:19.465Z,64.00
2022-10-17T01:02:46.517Z,64.00
2022-10-17T01:05:15.375Z,64.10
2022-10-17T01:07:44.029Z,64.20
2022-10-17T01:10:12.868Z,64.30
2022-10-17T01:13:00.276Z,64.20
2022-10-17T01:15:27.060Z,64.30
2022-10-17T01:17:55.720Z,64.30
2022-10-17T01:20:59.137Z,64.30
2022-10-17T01:23:56.727Z,64.30
2022-10-17T01:26:51.613Z,64.30
2022-10-17T01:29:40.928Z,64.10
2022-10-17T01:32:10.340Z,64.30
2022-10-17T01:34:56.302Z,64.30
2022-10-17T01:37:45.842Z,64.30
2022-10-17T01:40:21.597Z,64.40
2022-10-17T01:43:20.885Z,64.50
2022-10-17T01:45:58.865Z,64.50
2022-10-17T01:48:33.809Z,64.60
2022-10-17T01:51:07.812Z,64.60
2022-10-17T01:53:39.520Z,64.70
2022-10-17T01:56:09.814Z,64.80
2022-10-17T01:58:58.861Z,64.80
2022-10-17T02:01:28.679Z,64.90
2022-10-17T02:03:57.261Z,65.00
2022-10-17T02:06:23.922Z,65.10
2022-10-17T02:08:51.534Z,65.10
2022-10-17T02:11:22.701Z,65.10
2022-10-17T02:14:43.783Z,65.20
2022-10-17T02:17:17.301Z,65.30
2022-10-17T02:19:56.613Z,65.20
2022-10-17T02:22:47.597Z,65.30
2022-10-17T02:25:45.911Z,66.30
2022-10-17T02:28:30.271Z,65.40
2022-10-17T02:30:57.295Z,65.50
2022-10-17T02:33:27.521Z,65.70
2022-10-17T02:36:01.078Z,65.80
2022-10-17T02:38:30.568Z,65.90
2022-10-17T02:40:58.216Z,65.90
2022-10-17T02:43:25.651Z,66.10
2022-10-17T02:45:53.914Z,66.20
2022-10-17T02:48:42.849Z,66.30
2022-10-17T02:51:44.842Z,66.40
2022-10-17T02:54:23.080Z,66.40
2022-10-17T02:56:59.642Z,66.50
2022-10-17T02:59:29.412Z,66.50
2022-10-17T03:01:56.489Z,66.70
2022-10-17T03:04:24.319Z,66.70
2022-10-17T03:06:51.087Z,66.80
2022-10-17T03:09:18.459Z,66.90
2022-10-17T03:11:45.179Z,66.90
2022-10-17T03:14:11.989Z,67.00
2022-10-17T03:16:38.727Z,67.20
2022-10-17T03:19:05.482Z,67.30
2022-10-17T03:21:33.072Z,67.40
2022-10-17T03:23:59.950Z,67.40
2022-10-17T03:26:29.539Z,67.50
2022-10-17T03:28:57.408Z,67.40
2022-10-17T03:31:24.219Z,67.40
2022-10-17T03:33:52.182Z,67.50
2022-10-17T03:36:20.121Z,67.50
2022-10-17T03:38:48.104Z,67.60
2022-10-17T03:41:16.671Z,67.50
2022-10-17T03:43:43.530Z,67.50
2022-10-17T03:46:10.398Z,67.70
2022-10-17T03:48:37.769Z,67.80
2022-10-17T03:51:08.988Z,67.90
2022-10-17T03:53:41.827Z,68.10
2022-10-17T03:56:16.663Z,68.20
2022-10-17T03:58:45.444Z,68.30
2022-10-17T04:01:15.670Z,68.30
2022-10-17T04:03:43.216Z,68.40
2022-10-17T04:06:12.792Z,68.40
2022-10-17T04:08:42.747Z,68.50
2022-10-17T04:11:18.983Z,68.50
2022-10-17T04:13:47.395Z,68.50
2022-10-17T04:16:16.435Z,68.50
2022-10-17T04:18:58.298Z,68.40
2022-10-17T04:21:28.703Z,68.40
2022-10-17T04:23:59.624Z,68.40
2022-10-17T04:26:52.666Z,68.50
2022-10-17T04:29:22.281Z,68.40
2022-10-17T04:31:52.285Z,68.40
2022-10-17T04:34:29.341Z,68.40
2022-10-17T04:36:56.645Z,68.40
2022-10-17T04:39:23.453Z,68.40
2022-10-17T04:41:50.625Z,68.40
2022-10-17T04:44:17.467Z,68.40
2022-10-17T04:46:49.641Z,68.40
2022-10-17T04:49:17.115Z,68.40
2022-10-17T04:51:47.008Z,68.40
2022-10-17T04:54:26.201Z,68.40
2022-10-17T04:56:59.257Z,68.40
2022-10-17T04:59:26.383Z,68.40
2022-10-17T05:02:04.116Z,68.40
2022-10-17T05:04:32.191Z,68.50
2022-10-17T05:06:59.033Z,68.50
2022-10-17T05:09:51.131Z,68.50
2022-10-17T05:12:18.791Z,68.40
2022-10-17T05:14:46.332Z,68.50
2022-10-17T05:17:14.141Z,68.50
2022-10-17T05:19:40.878Z,68.50
2022-10-17T05:22:08.756Z,68.40
2022-10-17T05:24:35.567Z,68.40
2022-10-17T05:27:03.401Z,68.30
2022-10-17T05:29:30.194Z,68.30
2022-10-17T05:32:05.991Z,68.20
2022-10-17T05:34:34.857Z,68.30
2022-10-17T05:37:01.734Z,68.30
2022-10-17T05:39:28.823Z,68.30
2022-10-17T05:41:56.994Z,68.30
2022-10-17T05:44:23.816Z,68.30
2022-10-17T05:46:54.697Z,68.30
2022-10-17T05:49:32.618Z,68.40
2022-10-17T05:52:07.081Z,68.40
2022-10-17T05:54:43.038Z,68.30
2022-10-17T05:57:09.915Z,68.40
2022-10-17T05:59:36.653Z,68.40
2022-10-17T06:02:12.880Z,68.40
2022-10-17T06:04:45.300Z,68.40
2022-10-17T06:07:13.174Z,68.40
2022-10-17T06:09:40.720Z,68.30
2022-10-17T06:12:08.501Z,68.40
2022-10-17T06:14:35.447Z,68.40
2022-10-17T06:17:03.618Z,69.20
2022-10-17T06:19:30.373Z,68.20
2022-10-17T06:21:57.129Z,68.30
2022-10-17T06:24:26.445Z,68.20
2022-10-17T06:26:53.950Z,68.10
2022-10-17T06:29:22.057Z,67.80
2022-10-17T06:31:51.515Z,67.50
2022-10-17T06:34:19.340Z,67.20
2022-10-17T06:36:46.951Z,66.90
2022-10-17T06:39:14.046Z,66.70
2022-10-17T06:41:57.491Z,66.50
2022-10-17T06:44:39.961Z,66.30
2022-10-17T06:47:32.622Z,66.10
2022-10-17T06:50:05.800Z,66.00
2022-10-17T06:52:55.030Z,65.80
2022-10-17T06:55:44.230Z,65.70
2022-10-17T06:58:20.998Z,65.60
2022-10-17T07:03:36.668Z,65.40
2022-10-17T07:06:04.537Z,66.30
2022-10-17T07:08:31.712Z,65.20
2022-10-17T07:11:13.286Z,65.20
2022-10-17T07:13:40.244Z,66.00
2022-10-17T07:16:07.584Z,65.00
2022-10-17T07:18:35.188Z,65.00
2022-10-17T07:21:02.234Z,64.90
2022-10-17T07:23:29.894Z,64.90
2022-10-17T07:26:02.257Z,64.80
2022-10-17T07:28:29.565Z,64.80
2022-10-17T07:31:08.068Z,64.70
2022-10-17T07:33:35.196Z,64.70
2022-10-17T07:36:02.694Z,64.60
2022-10-17T07:38:30.769Z,64.60
2022-10-17T07:41:01.382Z,64.60
2022-10-17T07:43:28.999Z,64.40
2022-10-17T07:45:55.854Z,64.30
2022-10-17T07:48:24.257Z,64.30
2022-10-17T07:50:51.425Z,64.20
2022-10-17T07:53:18.906Z,64.20
2022-10-17T07:55:46.477Z,65.20
2022-10-17T07:58:14.162Z,64.30
2022-10-17T08:00:40.992Z,64.30
2022-10-17T08:03:08.155Z,64.30
2022-10-17T08:05:34.985Z,64.30
2022-10-17T08:08:01.831Z,64.30
2022-10-17T08:10:29.652Z,64.30
2022-10-17T08:12:58.440Z,64.30
2022-10-17T08:15:30.840Z,64.30
2022-10-17T08:17:59.212Z,64.30
2022-10-17T08:20:26.040Z,64.30
2022-10-17T08:22:54.250Z,64.30
2022-10-17T08:25:21.399Z,64.30
2022-10-17T08:27:48.285Z,64.40
2022-10-17T08:30:15.167Z,64.50
2022-10-17T08:32:42.058Z,64.50
2022-10-17T08:35:09.781Z,64.60
2022-10-17T08:37:36.682Z,64.70
2022-10-17T08:40:04.450Z,64.70
2022-10-17T08:42:55.246Z,64.70
2022-10-17T08:46:00.219Z,64.80
2022-10-17T08:48:31.357Z,64.80
2022-10-17T08:51:30.063Z,64.80
2022-10-17T08:54:22.517Z,65.90
2022-10-17T08:56:52.462Z,65.10
2022-10-17T08:59:30.687Z,64.90
2022-10-17T09:02:29.169Z,65.00
2022-10-17T09:05:23.966Z,65.10
2022-10-17T09:08:35.220Z,65.10
2022-10-17T09:11:36.214Z,65.20
2022-10-17T09:14:40.828Z,65.10
2022-10-17T09:17:19.559Z,65.10
2022-10-17T09:20:10.267Z,65.20
2022-10-17T09:23:00.987Z,65.20
2022-10-17T09:25:28.241Z,65.10
2022-10-17T09:28:18.464Z,65.20
2022-10-17T09:31:24.799Z,65.20
2022-10-17T09:33:55.235Z,65.10
2022-10-17T09:36:32.972Z,65.10
2022-10-17T09:39:04.657Z,65.10
2022-10-17T09:41:46.087Z,65.10
2022-10-17T09:44:31.154Z,65.20
2022-10-17T09:47:16.571Z,65.10
2022-10-17T09:49:45.813Z,65.10
2022-10-17T09:52:33.657Z,65.20
2022-10-17T09:55:20.985Z,65.30
2022-10-17T09:57:59.640Z,65.30
2022-10-17T10:00:37.848Z,65.30
2022-10-17T10:03:17.559Z,65.30
2022-10-17T10:05:59.132Z,65.20
2022-10-17T10:08:48.815Z,65.30
2022-10-17T10:11:17.657Z,65.20
2022-10-17T10:13:48.346Z,65.10
2022-10-17T10:16:45.123Z,65.10
2022-10-17T10:19:34.571Z,65.20
2022-10-17T10:22:02.378Z,65.10
2022-10-17T10:24:31.009Z,65.10
2022-10-17T10:27:01.471Z,65.20
2022-10-17T10:29:39.982Z,65.20
2022-10-17T10:32:32.001Z,65.20
2022-10-17T10:35:05.818Z,65.30
2022-10-17T10:37:39.506Z,65.20
2022-10-17T10:40:17.936Z,65.20
2022-10-17T10:42:50.237Z,65.30
2022-10-17T10:48:26.108Z,65.40
2022-10-17T10:50:52.773Z,65.40
2022-10-17T10:53:38.692Z,65.40
2022-10-17T10:56:17.711Z,65.50
2022-10-17T10:58:58.551Z,65.40
2022-10-17T11:01:54.656Z,65.40
2022-10-17T11:04:44.243Z,65.40
2022-10-17T11:07:22.583Z,65.40
2022-10-17T11:10:17.430Z,65.50
2022-10-17T11:12:53.116Z,65.40
2022-10-17T11:15:29.958Z,65.40
2022-10-17T11:18:19.457Z,65.60
2022-10-17T11:21:02.634Z,66.50
2022-10-17T11:23:42.997Z,65.60
2022-10-17T11:26:18.045Z,65.50
2022-10-17T11:28:44.834Z,65.60
2022-10-17T11:31:15.795Z,65.50
2022-10-17T11:34:01.351Z,65.50
2022-10-17T11:36:32.437Z,65.50
2022-10-17T11:39:27.606Z,65.40
2022-10-17T11:42:03.459Z,65.40
2022-10-17T11:44:42.525Z,65.40
2022-10-17T11:47:21.151Z,66.40
2022-10-17T11:49:53.562Z,65.40
2022-10-17T11:52:55.467Z,65.50
2022-10-17T11:55:28.878Z,65.50
2022-10-17T11:58:19.877Z,65.50
2022-10-17T12:00:49.789Z,65.60
2022-10-17T12:03:50.656Z,65.50
2022-10-17T12:06:32.404Z,65.50
2022-10-17T12:09:40.862Z,65.50
2022-10-17T12:12:07.729Z,65.50
2022-10-17T12:14:46.598Z,65.40
2022-10-17T12:17:30.617Z,65.40
2022-10-17T12:20:21.214Z,65.30
2022-10-17T12:22:53.041Z,65.30
2022-10-17T12:25:26.578Z,65.30
2022-10-17T12:28:03.633Z,65.30
2022-10-17T12:30:30.597Z,65.30
2022-10-17T12:33:22.318Z,65.30
2022-10-17T12:36:31.779Z,65.30
2022-10-17T12:39:01.491Z,65.30
2022-10-17T12:41:44.705Z,65.10
2022-10-17T12:44:14.792Z,65.50
2022-10-17T12:46:57.768Z,65.10
2022-10-17T12:49:39.591Z,65.40
2022-10-17T12:52:32.840Z,65.00
2022-10-17T12:55:12.638Z,65.10
2022-10-17T12:58:03.117Z,65.00
2022-10-17T13:00:37.281Z,64.90
2022-10-17T13:03:18.017Z,64.80
2022-10-17T13:05:49.128Z,64.80
2022-10-17T13:08:20.866Z,64.80
2022-10-17T13:10:52.418Z,64.80
2022-10-17T13:13:21.736Z,64.80
2022-10-17T13:15:54.165Z,64.80
2022-10-17T13:18:29.275Z,64.80
2022-10-17T13:21:15.723Z,64.80
2022-10-17T13:23:42.533Z,64.70
2022-10-17T13:26:21.651Z,64.70
2022-10-17T13:29:11.668Z,64.50
2022-10-17T13:31:41.202Z,64.50
2022-10-17T13:34:17.993Z,64.30
2022-10-17T13:36:48.808Z,64.40
2022-10-17T13:39:23.163Z,64.30
2022-10-17T13:41:56.589Z,64.30
2022-10-17T13:44:28.964Z,64.20
2022-10-17T13:46:55.714Z,64.10
2022-10-17T13:49:39.140Z,64.10
2022-10-17T13:52:14.290Z,64.00
2022-10-17T13:54:43.168Z,64.00
2022-10-17T13:57:25.813Z,64.00
2022-10-17T13:59:55.703Z,63.90
2022-10-17T14:02:29.179Z,63.90
2022-10-17T14:05:18.335Z,63.90
2022-10-17T14:08:11.164Z,63.80
2022-10-17T14:10:40.718Z,63.80
2022-10-17T14:13:16.693Z,63.80
2022-10-17T14:15:46.174Z,63.80
2022-10-17T14:18:22.874Z,63.80
2022-10-17T14:23:43.602Z,63.80
2022-10-17T14:26:21.143Z,63.70
2022-10-17T14:29:04.771Z,63.80
2022-10-17T14:31:35.095Z,63.80
2022-10-17T14:34:04.077Z,63.80
2022-10-17T14:36:39.870Z,63.70
2022-10-17T14:39:17.918Z,63.80
2022-10-17T14:41:45.952Z,63.80
2022-10-17T14:44:32.537Z,63.80
2022-10-17T14:47:18.230Z,63.80
2022-10-17T14:49:51.458Z,63.80
2022-10-17T14:52:18.939Z,63.70
2022-10-17T14:54:49.996Z,63.80
2022-10-17T14:57:19.700Z,63.80
2022-10-17T14:59:54.996Z,63.80
2022-10-17T15:02:24.221Z,63.80
2022-10-17T15:04:51.039Z,63.70
2022-10-17T15:07:20.966Z,63.70
2022-10-17T15:09:50.005Z,63.80
2022-10-17T15:12:19.854Z,63.80
2022-10-17T15:14:50.659Z,63.80
2022-10-17T15:17:23.873Z,63.80
2022-10-17T15:19:50.842Z,63.80
2022-10-17T15:22:18.264Z,63.80
2022-10-17T15:24:46.250Z,63.80
2022-10-17T15:27:17.306Z,63.80
2022-10-17T15:29:45.065Z,63.80
2022-10-17T15:32:12.032Z,63.80
2022-10-17T15:34:39.095Z,63.70
2022-10-17T15:37:10.928Z,63.70
2022-10-17T15:39:37.691Z,63.80
2022-10-17T15:42:09.121Z,63.70
2022-10-17T15:44:36.618Z,63.70
2022-10-17T15:47:03.713Z,63.70
2022-10-17T15:49:30.465Z,63.70
2022-10-17T15:51:57.266Z,63.70
2022-10-17T15:54:23.968Z,63.70
2022-10-17T15:56:54.862Z,63.70
2022-10-17T15:59:27.220Z,63.60
2022-10-17T16:01:53.938Z,63.40
2022-10-17T16:04:20.692Z,63.30
2022-10-17T16:06:47.399Z,63.20
2022-10-17T16:09:14.138Z,63.30
2022-10-17T16:11:43.138Z,63.30
2022-10-17T16:14:15.017Z,63.30
2022-10-17T16:16:42.206Z,63.20
2022-10-17T16:19:09.382Z,63.30
2022-10-17T16:21:38.975Z,63.30
2022-10-17T16:24:06.369Z,63.30
2022-10-17T16:26:33.095Z,63.40
2022-10-17T16:29:03.497Z,63.30
2022-10-17T16:31:39.754Z,63.30
2022-10-17T16:34:07.641Z,63.30
2022-10-17T16:36:35.045Z,63.30
2022-10-17T16:39:01.811Z,63.30
2022-10-17T16:41:31.200Z,63.40
2022-10-17T16:44:00.006Z,63.30
2022-10-17T16:46:28.760Z,63.30
2022-10-17T16:48:56.116Z,63.40
2022-10-17T16:51:23.079Z,63.40
2022-10-17T16:53:52.816Z,63.30
2022-10-17T16:56:22.114Z,63.30
2022-10-17T16:58:49.712Z,63.20
2022-10-17T17:01:19.281Z,63.20
2022-10-17T17:03:47.593Z,63.20
2022-10-17T17:06:20.745Z,63.20
2022-10-17T17:08:47.782Z,63.20
2022-10-17T17:11:16.572Z,63.20
2022-10-17T17:13:43.441Z,63.20
2022-10-17T17:16:13.404Z,63.20
2022-10-17T17:18:40.691Z,64.20
2022-10-17T17:21:09.557Z,63.20
2022-10-17T17:23:38.867Z,64.10
2022-10-17T17:26:10.269Z,63.20
2022-10-17T17:28:37.921Z,63.40
2022-10-17T17:31:08.864Z,63.50
2022-10-17T17:33:37.100Z,63.70
2022-10-17T17:36:04.457Z,63.80
2022-10-17T17:38:33.314Z,64.00
2022-10-17T17:41:00.780Z,64.20
2022-10-17T17:43:27.920Z,64.40
2022-10-17T17:45:54.843Z,64.50
2022-10-17T17:48:21.788Z,64.50
2022-10-17T17:50:49.073Z,65.40
2022-10-17T17:53:16.655Z,64.80
2022-10-17T17:55:43.412Z,64.80
2022-10-17T17:58:12.200Z,64.90
2022-10-17T18:00:40.545Z,65.00
2022-10-17T18:03:07.251Z,65.10
2022-10-17T18:05:34.127Z,65.00
2022-10-17T18:08:00.890Z,65.00
2022-10-17T18:10:29.323Z,65.20
2022-10-17T18:12:55.941Z,65.40
2022-10-17T18:15:23.130Z,65.20
2022-10-17T18:17:49.854Z,65.20
2022-10-17T18:20:16.662Z,65.40
2022-10-17T18:22:43.395Z,65.50
2022-10-17T18:25:10.080Z,65.50
2022-10-17T18:27:36.980Z,65.60
2022-10-17T18:30:04.442Z,65.60
2022-10-17T18:32:32.506Z,65.60
2022-10-17T18:34:59.985Z,65.60
2022-10-17T18:37:26.713Z,65.50
2022-10-17T18:39:55.751Z,65.60
2022-10-17T18:42:22.546Z,65.60
2022-10-17T18:44:49.866Z,65.50
2022-10-17T18:47:16.707Z,65.60
2022-10-17T18:49:43.538Z,65.60
2022-10-17T18:52:12.932Z,65.50
2022-10-17T18:54:39.732Z,65.50
2022-10-17T18:57:06.806Z,65.50
2022-10-17T18:59:33.789Z,65.60
2022-10-17T19:02:00.636Z,65.60
2022-10-17T19:04:27.442Z,65.50
2022-10-17T19:06:54.259Z,65.50
2022-10-17T19:09:21.010Z,65.60
2022-10-17T19:11:47.733Z,65.60
2022-10-17T19:14:14.541Z,65.60
2022-10-17T19:16:47.152Z,65.70
2022-10-17T19:19:19.414Z,65.70
2022-10-17T19:21:46.688Z,65.70
2022-10-17T19:24:16.767Z,65.70
2022-10-17T19:26:44.662Z,65.80
2022-10-17T19:29:15.636Z,65.70
2022-10-17T19:31:42.885Z,65.80
2022-10-17T19:34:11.225Z,65.70
2022-10-17T19:36:38.355Z,65.80
2022-10-17T19:39:08.452Z,65.80
2022-10-17T19:41:36.358Z,65.80
2022-10-17T19:44:03.662Z,65.80
2022-10-17T19:46:31.803Z,65.90
2022-10-17T19:48:58.522Z,65.90
2022-10-17T19:51:26.320Z,65.90
2022-10-17T19:53:55.907Z,66.00
2022-10-17T19:56:24.219Z,66.00
2022-10-17T19:58:51.428Z,66.10
2022-10-17T20:01:20.726Z,66.10
2022-10-17T20:03:48.085Z,66.20
2022-10-17T20:06:15.142Z,66.20
2022-10-17T20:08:42.437Z,66.20
2022-10-17T20:11:15.566Z,67.20
2022-10-17T20:13:42.653Z,66.30
2022-10-17T20:16:14.910Z,66.40
2022-10-17T20:18:42.228Z,66.50
2022-10-17T20:21:12.114Z,66.60
2022-10-17T20:23:39.498Z,66.70
2022-10-17T20:26:25.394Z,66.70
2022-10-17T20:28:55.947Z,66.80
2022-10-17T20:31:23.926Z,66.80
2022-10-17T20:33:58.825Z,66.90
2022-10-17T20:36:26.199Z,67.90
2022-10-17T20:38:55.484Z,67.00
2022-10-17T20:41:22.524Z,67.10
2022-10-17T20:43:54.101Z,67.10
2022-10-17T20:46:35.932Z,68.00
2022-10-17T20:49:07.823Z,68.00
2022-10-17T20:51:35.684Z,67.10
2022-10-17T20:54:03.078Z,67.10
2022-10-17T20:56:31.643Z,67.20
2022-10-17T20:59:01.212Z,67.10
2022-10-17T21:01:29.989Z,67.10
2022-10-17T21:03:59.669Z,67.20
2022-10-17T21:06:29.272Z,67.20
2022-10-17T21:08:56.371Z,67.20
2022-10-17T21:11:25.472Z,67.20
2022-10-17T21:14:00.750Z,67.20
2022-10-17T21:16:28.492Z,67.30
2022-10-17T21:18:56.226Z,67.20
2022-10-17T21:21:28.058Z,67.20
2022-10-17T21:24:00.365Z,67.30
2022-10-17T21:26:27.686Z,67.30
2022-10-17T21:28:54.648Z,67.30
2022-10-17T21:31:23.732Z,67.30
2022-10-17T21:34:01.598Z,67.30
2022-10-17T21:36:28.678Z,67.40
2022-10-17T21:38:57.075Z,67.40
2022-10-17T21:41:26.410Z,67.40
2022-10-17T21:43:58.686Z,67.30
2022-10-17T21:46:25.728Z,67.40
2022-10-17T21:48:52.716Z,67.50
2022-10-17T21:51:22.420Z,67.60
2022-10-17T21:53:50.866Z,67.60
2022-10-17T21:56:18.706Z,67.70
2022-10-17T21:58:46.118Z,67.60
2022-10-17T22:01:14.474Z,67.60
2022-10-17T22:03:45.682Z,67.80
2022-10-17T22:09:05.723Z,67.60
2022-10-17T22:11:35.057Z,67.70
2022-10-17T22:14:05.599Z,67.70
2022-10-17T22:16:32.889Z,67.80
2022-10-17T22:19:04.850Z,67.80
2022-10-17T22:21:33.630Z,67.80
2022-10-17T22:24:02.690Z,67.90
2022-10-17T22:26:31.175Z,67.90
2022-10-17T22:28:58.336Z,68.00
2022-10-17T22:31:25.751Z,68.00
2022-10-17T22:33:52.879Z,68.10
2022-10-17T22:36:20.149Z,68.10
2022-10-17T22:38:46.960Z,68.10
2022-10-17T22:41:13.697Z,68.20
2022-10-17T22:43:40.390Z,68.20
2022-10-17T22:46:07.649Z,68.20
2022-10-17T22:48:34.739Z,68.30
2022-10-17T22:51:01.763Z,68.30
2022-10-17T22:53:29.756Z,68.30
2022-10-17T22:56:02.679Z,68.40
2022-10-17T22:58:31.507Z,68.40
2022-10-17T23:00:58.507Z,68.30
2022-10-17T23:03:27.458Z,68.30
2022-10-17T23:05:54.864Z,68.40
2022-10-17T23:08:21.671Z,68.30
2022-10-17T23:10:48.664Z,68.90
2022-10-17T23:13:16.222Z,68.10
2022-10-17T23:15:43.488Z,68.90
2022-10-17T23:18:10.861Z,67.90
2022-10-17T23:20:37.998Z,67.80
2022-10-17T23:23:05.126Z,67.80
2022-10-17T23:25:34.525Z,67.80
2022-10-17T23:28:01.766Z,67.80
2022-10-17T23:30:28.919Z,67.80
2022-10-17T23:32:55.634Z,68.00
2022-10-17T23:35:22.529Z,68.20
2022-10-17T23:37:49.271Z,68.30
2022-10-17T23:40:16.179Z,68.30
2022-10-17T23:42:43.143Z,68.40
2022-10-17T23:45:10.399Z,68.30
2022-10-17T23:47:37.111Z,68.20
2022-10-17T23:50:06.009Z,68.10
2022-10-17T23:52:33.554Z,68.10
2022-10-17T23:55:00.293Z,68.90
2022-10-17T23:57:27.015Z,68.00
2022-10-17T23:59:53.750Z,68.00
